sensor_id;sensor_type;location;lat;lon;timestamp;temperature;humidity
15013;DHT22;7603;49.432;11.418;2022-10-16T00:00:43;15.50;99.90
15013;DHT22;7603;49.432;11.418;2022-10-16T00:03:09;15.50;99.90
15013;DHT22;7603;49.432;11.418;2022-10-16T00:05:40;15.50;99.90
15013;DHT22;7603;49.432;11.418;2022-10-16T00:08:07;15.50;99.90
15013;DHT22;7603;49.432;11.418;2022-10-16T00:10:33;15.50;99.90
15013;DHT22;7603;49.432;11.418;2022-10-16T00:12:59;15.50;99.90
15013;DHT22;7603;49.432;11.418;2022-10-16T00:15:25;15.50;99.90
15013;DHT22;7603;49.432;11.418;2022-10-16T00:17:50;15.50;99.90
15013;DHT22;7603;49.432;11.418;2022-10-16T00:20:16;15.50;99.90
15013;DHT22;7603;49.432;11.418;2022-10-16T00:22:42;15.40;99.90
15013;DHT22;7603;49.432;11.418;2022-10-16T00:25:08;15.50;99.90
15013;DHT22;7603;49.432;11.418;2022-10-16T00:27:34;15.40;99.90
15013;DHT22;7603;49.432;11.418;2022-10-16T00:30:00;15.40;99.90
15013;DHT22;7603;49.432;11.418;2022-10-16T00:32:25;15.40;99.90
15013;DHT22;7603;49.432;11.418;2022-10-16T00:34:51;15.30;99.90
15013;DHT22;7603;49.432;11.418;2022-10-16T00:37:20;15.30;99.90
15013;DHT22;7603;49.432;11.418;2022-10-16T00:39:45;15.30;99.90
15013;DHT22;7603;49.432;11.418;2022-10-16T00:42:15;15.30;99.90
15013;DHT22;7603;49.432;11.418;2022-10-16T00:44:44;15.30;99.90
15013;DHT22;7603;49.432;11.418;2022-10-16T00:47:15;15.20;99.90
15013;DHT22;7603;49.432;11.418;2022-10-16T00:49:43;15.20;99.90
15013;DHT22;7603;49.432;11.418;2022-10-16T00:52:10;15.20;99.90
15013;DHT22;7603;49.432;11.418;2022-10-16T00:54:36;15.20;99.90
15013;DHT22;7603;49.432;11.418;2022-10-16T00:57:04;15.20;99.90
15013;DHT22;7603;49.432;11.418;2022-10-16T00:59:36;15.20;99.90
15013;DHT22;7603;49.432;11.418;2022-10-16T01:02:05;15.20;99.90
15013;DHT22;7603;49.432;11.418;2022-10-16T01:04:36;15.20;99.90
15013;DHT22;7603;49.432;11.418;2022-10-16T01:07:46;15.20;99.90
15013;DHT22;7603;49.432;11.418;2022-10-16T01:10:57;15.20;99.90
15013;DHT22;7603;49.432;11.418;2022-10-16T01:13:22;15.20;99.90
15013;DHT22;7603;49.432;11.418;2022-10-16T01:21:02;15.20;99.90
15013;DHT22;7603;49.432;11.418;2022-10-16T01:23:50;15.20;99.90
15013;DHT22;7603;49.432;11.418;2022-10-16T01:29:45;15.10;99.90
15013;DHT22;7603;49.432;11.418;2022-10-16T01:35:11;15.10;99.90
15013;DHT22;7603;49.432;11.418;2022-10-16T01:37:40;15.10;99.90
15013;DHT22;7603;49.432;11.418;2022-10-16T01:40:13;15.00;99.90
15013;DHT22;7603;49.432;11.418;2022-10-16T01:42:42;15.10;99.90
15013;DHT22;7603;49.432;11.418;2022-10-16T01:45:13;15.10;99.90
15013;DHT22;7603;49.432;11.418;2022-10-16T01:47:41;15.00;99.90
15013;DHT22;7603;49.432;11.418;2022-10-16T01:50:09;15.00;99.90
15013;DHT22;7603;49.432;11.418;2022-10-16T01:52:37;15.00;99.90
15013;DHT22;7603;49.432;11.418;2022-10-16T01:55:06;15.10;99.90
15013;DHT22;7603;49.432;11.418;2022-10-16T01:57:34;15.10;99.90
15013;DHT22;7603;49.432;11.418;2022-10-16T02:00:05;15.10;99.90
15013;DHT22;7603;49.432;11.418;2022-10-16T02:02:33;15.10;99.90
15013;DHT22;7603;49.432;11.418;2022-10-16T02:05:06;15.10;99.90
15013;DHT22;7603;49.432;11.418;2022-10-16T02:07:34;15.20;99.90
15013;DHT22;7603;49.432;11.418;2022-10-16T02:10:00;15.20;99.90
15013;DHT22;7603;49.432;11.418;2022-10-16T02:12:29;15.20;99.90
15013;DHT22;7603;49.432;11.418;2022-10-16T02:14:56;15.20;99.90
15013;DHT22;7603;49.432;11.418;2022-10-16T02:17:22;15.20;99.90
15013;DHT22;7603;49.432;11.418;2022-10-16T02:19:50;15.20;99.90
15013;DHT22;7603;49.432;11.418;2022-10-16T02:22:34;15.20;99.90
15013;DHT22;7603;49.432;11.418;2022-10-16T02:25:06;15.20;99.90
15013;DHT22;7603;49.432;11.418;2022-10-16T02:32:34;15.20;99.90
15013;DHT22;7603;49.432;11.418;2022-10-16T02:35:01;15.20;99.90
15013;DHT22;7603;49.432;11.418;2022-10-16T02:37:28;15.20;99.90
15013;DHT22;7603;49.432;11.418;2022-10-16T02:39:56;15.20;99.90
15013;DHT22;7603;49.432;11.418;2022-10-16T02:42:29;15.30;99.90
15013;DHT22;7603;49.432;11.418;2022-10-16T02:44:57;15.20;99.90
15013;DHT22;7603;49.432;11.418;2022-10-16T02:47:23;15.30;99.90
15013;DHT22;7603;49.432;11.418;2022-10-16T02:49:49;15.30;99.90
15013;DHT22;7603;49.432;11.418;2022-10-16T02:52:14;15.30;99.90
15013;DHT22;7603;49.432;11.418;2022-10-16T02:54:40;15.30;99.90
15013;DHT22;7603;49.432;11.418;2022-10-16T02:57:06;15.30;99.90
15013;DHT22;7603;49.432;11.418;2022-10-16T02:59:31;15.30;99.90
15013;DHT22;7603;49.432;11.418;2022-10-16T03:01:57;15.30;99.90
15013;DHT22;7603;49.432;11.418;2022-10-16T03:04:22;15.30;99.90
15013;DHT22;7603;49.432;11.418;2022-10-16T03:06:48;15.30;99.90
15013;DHT22;7603;49.432;11.418;2022-10-16T03:09:14;15.20;99.90
15013;DHT22;7603;49.432;11.418;2022-10-16T03:11:39;15.20;99.90
15013;DHT22;7603;49.432;11.418;2022-10-16T03:14:05;15.20;99.90
15013;DHT22;7603;49.432;11.418;2022-10-16T03:16:31;15.30;99.90
15013;DHT22;7603;49.432;11.418;2022-10-16T03:18:56;15.30;99.90
15013;DHT22;7603;49.432;11.418;2022-10-16T03:21:22;15.20;99.90
15013;DHT22;7603;49.432;11.418;2022-10-16T03:23:47;15.30;99.90
15013;DHT22;7603;49.432;11.418;2022-10-16T03:26:13;15.20;99.90
15013;DHT22;7603;49.432;11.418;2022-10-16T03:28:39;15.30;99.90
15013;DHT22;7603;49.432;11.418;2022-10-16T03:31:04;15.20;99.90
15013;DHT22;7603;49.432;11.418;2022-10-16T03:33:30;15.20;99.90
15013;DHT22;7603;49.432;11.418;2022-10-16T03:35:55;15.20;99.90
15013;DHT22;7603;49.432;11.418;2022-10-16T03:38:21;15.20;99.90
15013;DHT22;7603;49.432;11.418;2022-10-16T03:40:47;15.20;99.90
15013;DHT22;7603;49.432;11.418;2022-10-16T03:43:13;15.30;99.90
15013;DHT22;7603;49.432;11.418;2022-10-16T03:45:39;15.20;99.90
15013;DHT22;7603;49.432;11.418;2022-10-16T03:48:05;15.30;99.90
15013;DHT22;7603;49.432;11.418;2022-10-16T03:50:31;15.30;99.90
15013;DHT22;7603;49.432;11.418;2022-10-16T03:52:56;15.20;99.90
15013;DHT22;7603;49.432;11.418;2022-10-16T03:55:22;15.20;99.90
15013;DHT22;7603;49.432;11.418;2022-10-16T03:57:48;15.30;99.90
15013;DHT22;7603;49.432;11.418;2022-10-16T04:00:13;15.30;99.90
15013;DHT22;7603;49.432;11.418;2022-10-16T04:02:39;15.20;99.90
15013;DHT22;7603;49.432;11.418;2022-10-16T04:05:06;15.20;99.90
15013;DHT22;7603;49.432;11.418;2022-10-16T04:07:32;15.20;99.90
15013;DHT22;7603;49.432;11.418;2022-10-16T04:09:57;15.30;99.90
15013;DHT22;7603;49.432;11.418;2022-10-16T04:12:25;15.20;99.90
15013;DHT22;7603;49.432;11.418;2022-10-16T04:14:51;15.20;99.90
15013;DHT22;7603;49.432;11.418;2022-10-16T04:17:16;15.20;99.90
15013;DHT22;7603;49.432;11.418;2022-10-16T04:19:42;15.30;99.90
15013;DHT22;7603;49.432;11.418;2022-10-16T04:22:07;15.30;99.90
15013;DHT22;7603;49.432;11.418;2022-10-16T04:24:33;15.20;99.90
15013;DHT22;7603;49.432;11.418;2022-10-16T04:26:59;15.30;99.90
15013;DHT22;7603;49.432;11.418;2022-10-16T04:29:24;15.30;99.90
15013;DHT22;7603;49.432;11.418;2022-10-16T04:31:50;15.20;99.90
15013;DHT22;7603;49.432;11.418;2022-10-16T04:34:16;15.20;99.90
15013;DHT22;7603;49.432;11.418;2022-10-16T04:36:41;15.20;99.90
15013;DHT22;7603;49.432;11.418;2022-10-16T04:39:07;15.30;99.90
15013;DHT22;7603;49.432;11.418;2022-10-16T04:41:33;15.30;99.90
15013;DHT22;7603;49.432;11.418;2022-10-16T04:43:58;15.30;99.90
15013;DHT22;7603;49.432;11.418;2022-10-16T04:46:24;15.30;99.90
15013;DHT22;7603;49.432;11.418;2022-10-16T04:48:50;15.30;99.90
15013;DHT22;7603;49.432;11.418;2022-10-16T04:51:15;15.30;99.90
15013;DHT22;7603;49.432;11.418;2022-10-16T04:53:41;15.30;99.90
15013;DHT22;7603;49.432;11.418;2022-10-16T04:56:06;15.30;99.90
15013;DHT22;7603;49.432;11.418;2022-10-16T04:58:32;15.30;99.90
15013;DHT22;7603;49.432;11.418;2022-10-16T05:00:58;15.30;99.90
15013;DHT22;7603;49.432;11.418;2022-10-16T05:03:24;15.20;99.90
15013;DHT22;7603;49.432;11.418;2022-10-16T05:05:49;15.30;99.90
15013;DHT22;7603;49.432;11.418;2022-10-16T05:08:16;15.20;99.90
15013;DHT22;7603;49.432;11.418;2022-10-16T05:10:43;15.20;99.90
15013;DHT22;7603;49.432;11.418;2022-10-16T05:13:09;15.20;99.90
15013;DHT22;7603;49.432;11.418;2022-10-16T05:15:35;15.10;99.90
15013;DHT22;7603;49.432;11.418;2022-10-16T05:18:00;15.10;99.90
15013;DHT22;7603;49.432;11.418;2022-10-16T05:20:26;15.10;99.90
15013;DHT22;7603;49.432;11.418;2022-10-16T05:22:52;15.00;99.90
15013;DHT22;7603;49.432;11.418;2022-10-16T05:25:17;15.10;99.90
15013;DHT22;7603;49.432;11.418;2022-10-16T05:27:46;15.00;99.90
15013;DHT22;7603;49.432;11.418;2022-10-16T05:30:12;15.00;99.90
15013;DHT22;7603;49.432;11.418;2022-10-16T05:32:38;15.00;99.90
15013;DHT22;7603;49.432;11.418;2022-10-16T05:35:04;14.90;99.90
15013;DHT22;7603;49.432;11.418;2022-10-16T05:37:29;14.90;99.90
15013;DHT22;7603;49.432;11.418;2022-10-16T05:39:55;14.80;99.90
15013;DHT22;7603;49.432;11.418;2022-10-16T05:42:21;14.80;99.90
15013;DHT22;7603;49.432;11.418;2022-10-16T05:44:46;14.80;99.90
15013;DHT22;7603;49.432;11.418;2022-10-16T05:47:13;14.80;99.90
15013;DHT22;7603;49.432;11.418;2022-10-16T05:49:39;14.80;99.90
15013;DHT22;7603;49.432;11.418;2022-10-16T05:52:05;14.80;99.90
15013;DHT22;7603;49.432;11.418;2022-10-16T05:54:31;14.80;99.90
15013;DHT22;7603;49.432;11.418;2022-10-16T05:56:57;14.80;99.90
15013;DHT22;7603;49.432;11.418;2022-10-16T05:59:22;14.80;99.90
15013;DHT22;7603;49.432;11.418;2022-10-16T06:01:48;14.80;99.90
15013;DHT22;7603;49.432;11.418;2022-10-16T06:04:14;14.80;99.90
15013;DHT22;7603;49.432;11.418;2022-10-16T06:06:40;14.80;99.90
15013;DHT22;7603;49.432;11.418;2022-10-16T06:09:05;14.80;99.90
15013;DHT22;7603;49.432;11.418;2022-10-16T06:11:32;14.90;99.90
15013;DHT22;7603;49.432;11.418;2022-10-16T06:14:00;14.90;99.90
15013;DHT22;7603;49.432;11.418;2022-10-16T06:16:28;14.90;99.90
15013;DHT22;7603;49.432;11.418;2022-10-16T06:18:55;15.00;99.90
15013;DHT22;7603;49.432;11.418;2022-10-16T06:21:23;15.00;99.90
15013;DHT22;7603;49.432;11.418;2022-10-16T06:23:53;15.10;99.90
15013;DHT22;7603;49.432;11.418;2022-10-16T06:26:21;15.20;99.90
15013;DHT22;7603;49.432;11.418;2022-10-16T06:28:48;15.30;99.90
15013;DHT22;7603;49.432;11.418;2022-10-16T06:31:14;15.40;99.90
15013;DHT22;7603;49.432;11.418;2022-10-16T06:33:41;15.60;99.90
15013;DHT22;7603;49.432;11.418;2022-10-16T06:36:11;15.80;99.90
15013;DHT22;7603;49.432;11.418;2022-10-16T06:38:38;16.00;99.90
15013;DHT22;7603;49.432;11.418;2022-10-16T06:41:05;16.20;99.90
15013;DHT22;7603;49.432;11.418;2022-10-16T06:43:32;16.40;99.90
15013;DHT22;7603;49.432;11.418;2022-10-16T06:45:59;16.40;99.90
15013;DHT22;7603;49.432;11.418;2022-10-16T06:48:25;16.50;99.90
15013;DHT22;7603;49.432;11.418;2022-10-16T06:51:01;16.50;99.90
15013;DHT22;7603;49.432;11.418;2022-10-16T06:53:30;16.50;99.90
15013;DHT22;7603;49.432;11.418;2022-10-16T06:55:56;16.50;99.90
15013;DHT22;7603;49.432;11.418;2022-10-16T06:58:22;16.50;99.90
15013;DHT22;7603;49.432;11.418;2022-10-16T07:00:47;16.60;99.90
15013;DHT22;7603;49.432;11.418;2022-10-16T07:03:13;16.70;99.90
15013;DHT22;7603;49.432;11.418;2022-10-16T07:05:42;16.80;99.90
15013;DHT22;7603;49.432;11.418;2022-10-16T07:08:08;17.00;99.90
15013;DHT22;7603;49.432;11.418;2022-10-16T07:10:35;17.10;99.90
15013;DHT22;7603;49.432;11.418;2022-10-16T07:13:01;17.30;99.90
15013;DHT22;7603;49.432;11.418;2022-10-16T07:15:27;17.30;99.90
15013;DHT22;7603;49.432;11.418;2022-10-16T07:17:53;17.40;99.90
15013;DHT22;7603;49.432;11.418;2022-10-16T07:20:19;17.40;99.90
15013;DHT22;7603;49.432;11.418;2022-10-16T07:22:45;17.30;99.90
15013;DHT22;7603;49.432;11.418;2022-10-16T07:25:11;17.30;99.90
15013;DHT22;7603;49.432;11.418;2022-10-16T07:27:37;17.40;99.90
15013;DHT22;7603;49.432;11.418;2022-10-16T07:30:04;17.40;99.90
15013;DHT22;7603;49.432;11.418;2022-10-16T07:32:30;17.50;99.90
15013;DHT22;7603;49.432;11.418;2022-10-16T07:34:56;17.50;99.90
15013;DHT22;7603;49.432;11.418;2022-10-16T07:37:22;17.60;99.90
15013;DHT22;7603;49.432;11.418;2022-10-16T07:39:47;17.60;99.90
15013;DHT22;7603;49.432;11.418;2022-10-16T07:42:13;17.60;99.90
15013;DHT22;7603;49.432;11.418;2022-10-16T07:44:39;17.70;99.90
15013;DHT22;7603;49.432;11.418;2022-10-16T07:47:06;17.70;99.90
15013;DHT22;7603;49.432;11.418;2022-10-16T07:49:32;17.80;99.90
15013;DHT22;7603;49.432;11.418;2022-10-16T07:51:57;17.80;99.90
15013;DHT22;7603;49.432;11.418;2022-10-16T07:54:23;17.90;99.90
15013;DHT22;7603;49.432;11.418;2022-10-16T07:56:49;17.90;99.90
15013;DHT22;7603;49.432;11.418;2022-10-16T07:59:14;17.90;99.90
15013;DHT22;7603;49.432;11.418;2022-10-16T08:01:40;17.90;99.90
15013;DHT22;7603;49.432;11.418;2022-10-16T08:04:08;17.90;99.90
15013;DHT22;7603;49.432;11.418;2022-10-16T08:06:38;17.90;99.90
15013;DHT22;7603;49.432;11.418;2022-10-16T08:09:05;17.90;99.90
15013;DHT22;7603;49.432;11.418;2022-10-16T08:11:30;18.00;99.90
15013;DHT22;7603;49.432;11.418;2022-10-16T08:13:56;18.00;99.90
15013;DHT22;7603;49.432;11.418;2022-10-16T08:16:22;18.20;99.90
15013;DHT22;7603;49.432;11.418;2022-10-16T08:18:47;18.30;99.90
15013;DHT22;7603;49.432;11.418;2022-10-16T08:21:15;18.40;99.90
15013;DHT22;7603;49.432;11.418;2022-10-16T08:23:41;18.50;99.90
15013;DHT22;7603;49.432;11.418;2022-10-16T08:26:08;18.70;99.90
15013;DHT22;7603;49.432;11.418;2022-10-16T08:28:34;18.80;99.90
15013;DHT22;7603;49.432;11.418;2022-10-16T08:31:11;19.00;99.90
15013;DHT22;7603;49.432;11.418;2022-10-16T08:33:39;19.30;99.90
15013;DHT22;7603;49.432;11.418;2022-10-16T08:36:06;19.50;99.90
15013;DHT22;7603;49.432;11.418;2022-10-16T08:38:33;19.90;99.90
15013;DHT22;7603;49.432;11.418;2022-10-16T08:44:30;21.00;99.90
15013;DHT22;7603;49.432;11.418;2022-10-16T08:49:26;21.70;99.90
15013;DHT22;7603;49.432;11.418;2022-10-16T08:51:53;21.90;99.90
15013;DHT22;7603;49.432;11.418;2022-10-16T08:54:37;22.10;99.90
15013;DHT22;7603;49.432;11.418;2022-10-16T08:57:11;22.60;99.90
15013;DHT22;7603;49.432;11.418;2022-10-16T08:59:37;23.30;99.90
15013;DHT22;7603;49.432;11.418;2022-10-16T09:02:31;24.20;99.90
15013;DHT22;7603;49.432;11.418;2022-10-16T09:07:27;26.30;99.90
15013;DHT22;7603;49.432;11.418;2022-10-16T09:15:29;27.70;99.90
15013;DHT22;7603;49.432;11.418;2022-10-16T09:23:28;26.80;99.90
15013;DHT22;7603;49.432;11.418;2022-10-16T09:25:55;26.50;99.90
15013;DHT22;7603;49.432;11.418;2022-10-16T09:28:21;26.40;99.90
15013;DHT22;7603;49.432;11.418;2022-10-16T09:30:47;26.10;99.90
15013;DHT22;7603;49.432;11.418;2022-10-16T09:33:18;25.90;99.90
15013;DHT22;7603;49.432;11.418;2022-10-16T09:35:50;26.20;99.90
15013;DHT22;7603;49.432;11.418;2022-10-16T09:38:25;26.90;99.90
15013;DHT22;7603;49.432;11.418;2022-10-16T09:40:51;27.60;99.90
15013;DHT22;7603;49.432;11.418;2022-10-16T09:43:28;28.10;99.90
15013;DHT22;7603;49.432;11.418;2022-10-16T09:46:02;28.30;99.00
15013;DHT22;7603;49.432;11.418;2022-10-16T09:48:37;28.20;98.30
15013;DHT22;7603;49.432;11.418;2022-10-16T09:51:05;27.90;97.10
15013;DHT22;7603;49.432;11.418;2022-10-16T09:53:42;27.20;97.60
15013;DHT22;7603;49.432;11.418;2022-10-16T09:56:11;26.40;98.80
15013;DHT22;7603;49.432;11.418;2022-10-16T09:58:42;25.60;99.90
15013;DHT22;7603;49.432;11.418;2022-10-16T10:01:14;24.90;99.90
15013;DHT22;7603;49.432;11.418;2022-10-16T10:03:42;24.20;99.90
15013;DHT22;7603;49.432;11.418;2022-10-16T10:06:21;23.60;99.90
15013;DHT22;7603;49.432;11.418;2022-10-16T10:08:55;23.00;99.90
15013;DHT22;7603;49.432;11.418;2022-10-16T10:11:41;22.60;99.90
15013;DHT22;7603;49.432;11.418;2022-10-16T10:14:37;22.30;99.90
15013;DHT22;7603;49.432;11.418;2022-10-16T10:31:14;23.70;99.90
15013;DHT22;7603;49.432;11.418;2022-10-16T10:46:56;27.40;99.90
15013;DHT22;7603;49.432;11.418;2022-10-16T10:52:43;27.30;99.90
15013;DHT22;7603;49.432;11.418;2022-10-16T11:04:39;27.50;98.60
15013;DHT22;7603;49.432;11.418;2022-10-16T11:06:49;28.00;97.70
15013;DHT22;7603;49.432;11.418;2022-10-16T11:09:34;28.90;97.00
15013;DHT22;7603;49.432;11.418;2022-10-16T11:12:05;30.10;93.90
15013;DHT22;7603;49.432;11.418;2022-10-16T11:14:34;31.30;91.70
15013;DHT22;7603;49.432;11.418;2022-10-16T11:17:19;32.30;87.50
15013;DHT22;7603;49.432;11.418;2022-10-16T11:19:55;33.20;78.00
15013;DHT22;7603;49.432;11.418;2022-10-16T11:22:38;33.50;74.90
15013;DHT22;7603;49.432;11.418;2022-10-16T11:28:02;32.20;74.20
15013;DHT22;7603;49.432;11.418;2022-10-16T11:30:31;31.20;76.60
15013;DHT22;7603;49.432;11.418;2022-10-16T11:38:58;28.20;86.90
15013;DHT22;7603;49.432;11.418;2022-10-16T11:47:37;26.60;92.90
15013;DHT22;7603;49.432;11.418;2022-10-16T11:50:26;26.20;94.50
15013;DHT22;7603;49.432;11.418;2022-10-16T11:55:58;26.10;97.20
15013;DHT22;7603;49.432;11.418;2022-10-16T12:09:51;28.20;94.10
15013;DHT22;7603;49.432;11.418;2022-10-16T12:12:46;28.90;93.00
15013;DHT22;7603;49.432;11.418;2022-10-16T12:15:24;30.60;90.20
15013;DHT22;7603;49.432;11.418;2022-10-16T12:17:51;32.20;84.00
15013;DHT22;7603;49.432;11.418;2022-10-16T12:27:56;35.20;68.80
15013;DHT22;7603;49.432;11.418;2022-10-16T12:30:24;36.20;63.60
15013;DHT22;7603;49.432;11.418;2022-10-16T12:32:56;36.70;59.60
15013;DHT22;7603;49.432;11.418;2022-10-16T12:35:34;36.90;58.10
15013;DHT22;7603;49.432;11.418;2022-10-16T12:38:22;37.20;56.70
15013;DHT22;7603;49.432;11.418;2022-10-16T12:41:00;38.00;54.70
15013;DHT22;7603;49.432;11.418;2022-10-16T12:46:05;38.30;52.40
15013;DHT22;7603;49.432;11.418;2022-10-16T12:48:45;37.30;53.40
15013;DHT22;7603;49.432;11.418;2022-10-16T12:54:03;34.70;57.60
15013;DHT22;7603;49.432;11.418;2022-10-16T12:59:41;33.70;60.80
15013;DHT22;7603;49.432;11.418;2022-10-16T13:10:25;32.60;63.80
15013;DHT22;7603;49.432;11.418;2022-10-16T13:13:10;32.80;64.00
15013;DHT22;7603;49.432;11.418;2022-10-16T13:23:28;35.10;59.80
15013;DHT22;7603;49.432;11.418;2022-10-16T13:28:52;35.00;58.70
15013;DHT22;7603;49.432;11.418;2022-10-16T13:31:23;34.80;57.80
15013;DHT22;7603;49.432;11.418;2022-10-16T13:33:52;34.50;58.70
15013;DHT22;7603;49.432;11.418;2022-10-16T13:36:42;34.20;59.50
15013;DHT22;7603;49.432;11.418;2022-10-16T13:39:23;34.00;61.00
15013;DHT22;7603;49.432;11.418;2022-10-16T13:42:19;34.20;59.40
15013;DHT22;7603;49.432;11.418;2022-10-16T13:44:49;35.00;58.60
15013;DHT22;7603;49.432;11.418;2022-10-16T13:47:26;36.30;57.40
15013;DHT22;7603;49.432;11.418;2022-10-16T13:50:12;37.20;52.50
15013;DHT22;7603;49.432;11.418;2022-10-16T13:52:38;38.00;50.10
15013;DHT22;7603;49.432;11.418;2022-10-16T13:55:14;38.40;50.10
15013;DHT22;7603;49.432;11.418;2022-10-16T13:57:41;38.50;48.80
15013;DHT22;7603;49.432;11.418;2022-10-16T14:00:23;39.20;48.90
15013;DHT22;7603;49.432;11.418;2022-10-16T14:03:01;40.30;47.40
15013;DHT22;7603;49.432;11.418;2022-10-16T14:05:27;41.60;45.10
15013;DHT22;7603;49.432;11.418;2022-10-16T14:07:54;42.50;43.10
15013;DHT22;7603;49.432;11.418;2022-10-16T14:10:27;43.10;42.20
15013;DHT22;7603;49.432;11.418;2022-10-16T14:12:59;43.60;41.20
15013;DHT22;7603;49.432;11.418;2022-10-16T14:15:26;44.00;40.20
15013;DHT22;7603;49.432;11.418;2022-10-16T14:17:52;44.20;39.10
15013;DHT22;7603;49.432;11.418;2022-10-16T14:20:19;44.00;37.40
15013;DHT22;7603;49.432;11.418;2022-10-16T14:22:46;43.70;37.20
15013;DHT22;7603;49.432;11.418;2022-10-16T14:25:23;43.30;37.50
15013;DHT22;7603;49.432;11.418;2022-10-16T14:30:35;43.30;37.70
15013;DHT22;7603;49.432;11.418;2022-10-16T14:33:04;43.70;37.90
15013;DHT22;7603;49.432;11.418;2022-10-16T14:38:00;44.30;37.70
15013;DHT22;7603;49.432;11.418;2022-10-16T14:40:35;44.20;37.70
15013;DHT22;7603;49.432;11.418;2022-10-16T14:43:02;44.20;37.80
15013;DHT22;7603;49.432;11.418;2022-10-16T14:45:32;44.50;37.70
15013;DHT22;7603;49.432;11.418;2022-10-16T14:48:01;44.50;37.50
15013;DHT22;7603;49.432;11.418;2022-10-16T14:50:28;44.30;37.90
15013;DHT22;7603;49.432;11.418;2022-10-16T14:52:54;44.10;38.90
15013;DHT22;7603;49.432;11.418;2022-10-16T14:55:20;43.90;39.20
15013;DHT22;7603;49.432;11.418;2022-10-16T14:57:47;43.20;39.90
15013;DHT22;7603;49.432;11.418;2022-10-16T15:00:21;42.50;40.50
15013;DHT22;7603;49.432;11.418;2022-10-16T15:02:49;41.30;41.40
15013;DHT22;7603;49.432;11.418;2022-10-16T15:05:26;39.70;43.20
15013;DHT22;7603;49.432;11.418;2022-10-16T15:07:53;37.70;45.80
15013;DHT22;7603;49.432;11.418;2022-10-16T15:10:21;35.90;48.60
15013;DHT22;7603;49.432;11.418;2022-10-16T15:12:47;34.10;51.70
15013;DHT22;7603;49.432;11.418;2022-10-16T15:17:59;31.10;58.80
15013;DHT22;7603;49.432;11.418;2022-10-16T15:20:31;29.80;61.60
15013;DHT22;7603;49.432;11.418;2022-10-16T15:23:00;28.80;66.20
15013;DHT22;7603;49.432;11.418;2022-10-16T15:28:03;27.00;76.00
15013;DHT22;7603;49.432;11.418;2022-10-16T15:30:29;26.30;80.40
15013;DHT22;7603;49.432;11.418;2022-10-16T15:32:55;25.80;85.80
15013;DHT22;7603;49.432;11.418;2022-10-16T15:35:21;25.30;90.50
15013;DHT22;7603;49.432;11.418;2022-10-16T15:37:48;24.80;92.90
15013;DHT22;7603;49.432;11.418;2022-10-16T15:40:15;24.40;95.40
15013;DHT22;7603;49.432;11.418;2022-10-16T15:42:41;24.00;97.60
15013;DHT22;7603;49.432;11.418;2022-10-16T15:45:09;23.70;99.90
15013;DHT22;7603;49.432;11.418;2022-10-16T15:47:35;23.30;99.90
15013;DHT22;7603;49.432;11.418;2022-10-16T15:50:01;22.90;99.90
15013;DHT22;7603;49.432;11.418;2022-10-16T15:52:27;22.60;99.90
15013;DHT22;7603;49.432;11.418;2022-10-16T15:54:54;22.20;99.90
15013;DHT22;7603;49.432;11.418;2022-10-16T15:57:19;21.90;99.90
15013;DHT22;7603;49.432;11.418;2022-10-16T15:59:45;21.60;99.90
15013;DHT22;7603;49.432;11.418;2022-10-16T16:02:11;21.30;99.90
15013;DHT22;7603;49.432;11.418;2022-10-16T16:04:36;21.10;99.90
15013;DHT22;7603;49.432;11.418;2022-10-16T16:07:02;20.80;99.90
15013;DHT22;7603;49.432;11.418;2022-10-16T16:09:31;20.60;99.90
15013;DHT22;7603;49.432;11.418;2022-10-16T16:11:56;20.40;99.90
15013;DHT22;7603;49.432;11.418;2022-10-16T16:14:27;20.30;99.90
15013;DHT22;7603;49.432;11.418;2022-10-16T16:16:56;20.10;99.90
15013;DHT22;7603;49.432;11.418;2022-10-16T16:19:22;19.90;99.90
15013;DHT22;7603;49.432;11.418;2022-10-16T16:21:49;19.80;99.90
15013;DHT22;7603;49.432;11.418;2022-10-16T16:24:15;19.70;99.90
15013;DHT22;7603;49.432;11.418;2022-10-16T16:26:40;19.70;99.90
15013;DHT22;7603;49.432;11.418;2022-10-16T16:29:14;19.50;99.90
15013;DHT22;7603;49.432;11.418;2022-10-16T16:31:40;19.40;99.90
15013;DHT22;7603;49.432;11.418;2022-10-16T16:34:06;19.30;99.90
15013;DHT22;7603;49.432;11.418;2022-10-16T16:36:33;19.30;99.90
15013;DHT22;7603;49.432;11.418;2022-10-16T16:38:59;19.20;99.90
15013;DHT22;7603;49.432;11.418;2022-10-16T16:41:27;19.10;99.90
15013;DHT22;7603;49.432;11.418;2022-10-16T16:43:54;19.00;99.90
15013;DHT22;7603;49.432;11.418;2022-10-16T16:46:20;18.90;99.90
15013;DHT22;7603;49.432;11.418;2022-10-16T16:48:46;18.80;99.90
15013;DHT22;7603;49.432;11.418;2022-10-16T16:51:16;18.70;99.90
15013;DHT22;7603;49.432;11.418;2022-10-16T16:53:46;18.60;99.90
15013;DHT22;7603;49.432;11.418;2022-10-16T16:56:13;18.50;99.90
15013;DHT22;7603;49.432;11.418;2022-10-16T16:58:39;18.40;99.90
15013;DHT22;7603;49.432;11.418;2022-10-16T17:01:05;18.30;99.90
15013;DHT22;7603;49.432;11.418;2022-10-16T17:03:33;18.30;99.90
15013;DHT22;7603;49.432;11.418;2022-10-16T17:06:02;18.20;99.90
15013;DHT22;7603;49.432;11.418;2022-10-16T17:08:29;18.10;99.90
15013;DHT22;7603;49.432;11.418;2022-10-16T17:10:55;18.00;99.90
15013;DHT22;7603;49.432;11.418;2022-10-16T17:13:33;18.00;99.90
15013;DHT22;7603;49.432;11.418;2022-10-16T17:16:04;18.00;99.90
15013;DHT22;7603;49.432;11.418;2022-10-16T17:18:30;17.90;99.90
15013;DHT22;7603;49.432;11.418;2022-10-16T17:20:59;17.80;99.90
15013;DHT22;7603;49.432;11.418;2022-10-16T17:23:25;17.80;99.90
15013;DHT22;7603;49.432;11.418;2022-10-16T17:25:51;17.80;99.90
15013;DHT22;7603;49.432;11.418;2022-10-16T17:28:27;17.70;99.90
15013;DHT22;7603;49.432;11.418;2022-10-16T17:31:10;17.70;99.90
15013;DHT22;7603;49.432;11.418;2022-10-16T17:33:39;17.60;99.90
15013;DHT22;7603;49.432;11.418;2022-10-16T17:36:05;17.60;99.90
15013;DHT22;7603;49.432;11.418;2022-10-16T17:38:31;17.50;99.90
15013;DHT22;7603;49.432;11.418;2022-10-16T17:40:57;17.50;99.90
15013;DHT22;7603;49.432;11.418;2022-10-16T17:43:22;17.40;99.90
15013;DHT22;7603;49.432;11.418;2022-10-16T17:45:51;17.30;99.90
15013;DHT22;7603;49.432;11.418;2022-10-16T17:48:19;17.30;99.90
15013;DHT22;7603;49.432;11.418;2022-10-16T17:50:51;17.20;99.90
15013;DHT22;7603;49.432;11.418;2022-10-16T17:53:17;17.20;99.90
15013;DHT22;7603;49.432;11.418;2022-10-16T17:55:42;17.10;99.90
15013;DHT22;7603;49.432;11.418;2022-10-16T17:58:08;17.10;99.90
15013;DHT22;7603;49.432;11.418;2022-10-16T18:00:34;17.00;99.90
15013;DHT22;7603;49.432;11.418;2022-10-16T18:03:00;17.00;99.90
15013;DHT22;7603;49.432;11.418;2022-10-16T18:05:25;17.00;99.90
15013;DHT22;7603;49.432;11.418;2022-10-16T18:07:51;16.90;99.90
15013;DHT22;7603;49.432;11.418;2022-10-16T18:10:17;16.90;99.90